Language: 


Des rapports , des résumés tant et plus, au choix de chacun....


Données Historiques de Météogheer
Journalier Rapport pour Février 16, 2017 Unitée:  Les deux    Impériale   Métrique
Suivant Jour »
Journalier Hebdomadaire Mensuel Annuel Sur mesure
  Max: Min: Moyenne:
Température: 53.8 °F /  12.1 °C 32 °F /  0.0 °C 42.3 °F /  5.7 °C
Point de rosée: 52.3 °F /  11.3 °C 33.4 °F /  0.8 °C 41.4 °F /  5.2 °C
Humidité: 98% 0% 96%
Vent: 11mph /  17.7km/h - 3.2mph /  5.1km/h
Rafales: 12.8mph /  20.6km/h - -
Vent- - West
Pression: 30.4 in /  1031.0 hPa 0 in /  0.0 hPa -
Pluie: 0 in /  0.0 mm    
Historical Graphs
 
 
Données tabulaires pour Février 16, 2017
Heure Température Point de rosée Pression Vent Vent Rafales Humidité Pluie Taux (Horaire) Conditions
00:03 39.6 °F /  4.2 °C 38.3 °F /  3.5 °C 30.4in /  1030.0hPa SSW 2.7mph /  4.3km/h 3.1mph /  5.0km/h 95% 0in /  0.0mm
00:08 39.6 °F /  4.2 °C 38.3 °F /  3.5 °C 30.4in /  1030.0hPa Calm   3.1mph /  5.0km/h 95% 0in /  0.0mm
00:13 39.4 °F /  4.1 °C 38.1 °F /  3.4 °C 30.4in /  1030.0hPa Calm   2.7mph /  4.3km/h 95% 0in /  0.0mm
00:18 39.2 °F /  4.0 °C 38.1 °F /  3.4 °C 30.4in /  1030.0hPa Calm   2mph /  3.2km/h 96% 0in /  0.0mm
00:23 39.2 °F /  4.0 °C 38.1 °F /  3.4 °C 30.4in /  1030.0hPa Calm   2.9mph /  4.7km/h 96% 0in /  0.0mm
00:28 39.2 °F /  4.0 °C 38.1 °F /  3.4 °C 30.4in /  1030.0hPa Calm   2.9mph /  4.7km/h 96% 0in /  0.0mm
00:33 39 °F /  3.9 °C 37.9 °F /  3.3 °C 30.4in /  1030.0hPa Calm     96% 0in /  0.0mm
00:38 39 °F /  3.9 °C 37.9 °F /  3.3 °C 30.4in /  1030.0hPa Calm   0.9mph /  1.4km/h 96% 0in /  0.0mm
00:43 38.8 °F /  3.8 °C 38.1 °F /  3.4 °C 30.4in /  1030.0hPa Calm   0.9mph /  1.4km/h 97% 0in /  0.0mm
00:48 39 °F /  3.9 °C 38.3 °F /  3.5 °C 30.4in /  1030.0hPa Calm   2mph /  3.2km/h 97% 0in /  0.0mm
00:53 39 °F /  3.9 °C 38.3 °F /  3.5 °C 30.4in /  1030.0hPa SSW 2.2mph /  3.5km/h 2.2mph /  3.5km/h 97% 0in /  0.0mm
00:58 38.8 °F /  3.8 °C 38.1 °F /  3.4 °C 30.4in /  1030.0hPa WSW 2mph /  3.2km/h 2.2mph /  3.5km/h 97% 0in /  0.0mm
01:03 39 °F /  3.9 °C 38.3 °F /  3.5 °C 30.4in /  1030.0hPa Calm   2.2mph /  3.5km/h 97% 0in /  0.0mm
01:08 39 °F /  3.9 °C 38.3 °F /  3.5 °C 30.4in /  1031.0hPa Calm   2mph /  3.2km/h 97% 0in /  0.0mm
01:14 38.8 °F /  3.8 °C 38.1 °F /  3.4 °C 30.4in /  1031.0hPa Calm     97% 0in /  0.0mm
01:19 38.7 °F /  3.7 °C 37.9 °F /  3.3 °C 30.4in /  1031.0hPa Calm     97% 0in /  0.0mm
01:24 38.5 °F /  3.6 °C 37.8 °F /  3.2 °C 30.4in /  1031.0hPa Calm     97% 0in /  0.0mm
01:29 38.5 °F /  3.6 °C 37.6 °F /  3.1 °C 30.4in /  1031.0hPa Calm     97% 0in /  0.0mm
01:34 38.1 °F /  3.4 °C 37.4 °F /  3.0 °C 30.4in /  1031.0hPa Calm     97% 0in /  0.0mm
01:39 37.9 °F /  3.3 °C 37.2 °F /  2.9 °C 30.4in /  1031.0hPa Calm     97% 0in /  0.0mm
01:44 37.9 °F /  3.3 °C 37.2 °F /  2.9 °C 30.4in /  1031.0hPa Calm     97% 0in /  0.0mm
01:49 37.8 °F /  3.2 °C 37 °F /  2.8 °C 30.4in /  1031.0hPa Calm   2mph /  3.2km/h 97% 0in /  0.0mm
01:54 37.8 °F /  3.2 °C 37 °F /  2.8 °C 30.4in /  1030.0hPa Calm   2mph /  3.2km/h 97% 0in /  0.0mm
01:59 38.5 °F /  3.6 °C 37.8 °F /  3.2 °C 30.4in /  1030.0hPa Calm   2.7mph /  4.3km/h 98% 0in /  0.0mm
02:04 38.8 °F /  3.8 °C 38.5 °F /  3.6 °C 30.4in /  1030.0hPa Calm   3.1mph /  5.0km/h 98% 0in /  0.0mm
02:09 39.2 °F /  4.0 °C 38.7 °F /  3.7 °C 30.4in /  1030.0hPa West 1.3mph /  2.1km/h 3.1mph /  5.0km/h 98% 0in /  0.0mm
02:14 39.2 °F /  4.0 °C 38.7 °F /  3.7 °C 30.4in /  1030.0hPa Calm   3.1mph /  5.0km/h 98% 0in /  0.0mm
02:19 39.2 °F /  4.0 °C 38.7 °F /  3.7 °C 30.4in /  1030.0hPa Calm   2.2mph /  3.5km/h 98% 0in /  0.0mm
02:24 39.2 °F /  4.0 °C 38.7 °F /  3.7 °C 30.4in /  1031.0hPa West 2mph /  3.2km/h 2.5mph /  4.0km/h 98% 0in /  0.0mm
02:29 38.8 °F /  3.8 °C 38.5 °F /  3.6 °C 30.4in /  1031.0hPa Calm   3.4mph /  5.5km/h 98% 0in /  0.0mm
02:34 38.5 °F /  3.6 °C 37.9 °F /  3.3 °C 30.4in /  1031.0hPa Calm   3.4mph /  5.5km/h 98% 0in /  0.0mm
02:39 38.7 °F /  3.7 °C 38.1 °F /  3.4 °C 30.4in /  1031.0hPa Calm   0.9mph /  1.4km/h 98% 0in /  0.0mm
02:44 38.5 °F /  3.6 °C 37.9 °F /  3.3 °C 30.4in /  1031.0hPa West 2.9mph /  4.7km/h 2.9mph /  4.7km/h 98% 0in /  0.0mm
02:49 37.9 °F /  3.3 °C 37.6 °F /  3.1 °C 30.4in /  1031.0hPa West 2.2mph /  3.5km/h 3.4mph /  5.5km/h 98% 0in /  0.0mm
02:54 37.6 °F /  3.1 °C 36.9 °F /  2.7 °C 30.4in /  1030.0hPa Calm   3.6mph /  5.8km/h 97% 0in /  0.0mm
02:59 37.2 °F /  2.9 °C 36.5 °F /  2.5 °C 30.4in /  1030.0hPa West 2.7mph /  4.3km/h 3.6mph /  5.8km/h 97% 0in /  0.0mm
03:06 32 °F /  0.0 °C 35.8 °F /  2.1 °C 0in /  0.0hPa West 0.9mph /  1.4km/h 2.7mph /  4.3km/h 0% 0in /  0.0mm
03:11 36.1 °F /  2.3 °C 35.2 °F /  1.8 °C 30.4in /  1030.0hPa West 2.5mph /  4.0km/h 2.5mph /  4.0km/h 97% 0in /  0.0mm
03:16 36.1 °F /  2.3 °C 35.2 °F /  1.8 °C 30.4in /  1030.0hPa Calm   2.5mph /  4.0km/h 97% 0in /  0.0mm
03:21 36 °F /  2.2 °C 35.1 °F /  1.7 °C 30.4in /  1030.0hPa Calm   2.5mph /  4.0km/h 97% 0in /  0.0mm
03:26 35.8 °F /  2.1 °C 34.9 °F /  1.6 °C 30.4in /  1030.0hPa Calm   2.5mph /  4.0km/h 97% 0in /  0.0mm
03:31 35.4 °F /  1.9 °C 35.1 °F /  1.7 °C 30.4in /  1030.0hPa West 1.1mph /  1.8km/h 2.5mph /  4.0km/h 98% 0in /  0.0mm
03:36 35.8 °F /  2.1 °C 35.2 °F /  1.8 °C 30.4in /  1030.0hPa Calm   2.7mph /  4.3km/h 98% 0in /  0.0mm
03:41 35.8 °F /  2.1 °C 35.2 °F /  1.8 °C 30.4in /  1030.0hPa Calm   2.7mph /  4.3km/h 98% 0in /  0.0mm
03:51 35.8 °F /  2.1 °C 35.2 °F /  1.8 °C 30.4in /  1030.0hPa Calm     98% 0in /  0.0mm
03:56 35.8 °F /  2.1 °C 35.2 °F /  1.8 °C 30.4in /  1030.0hPa Calm   2mph /  3.2km/h 98% 0in /  0.0mm
04:01 36.1 °F /  2.3 °C 35.4 °F /  1.9 °C 30.4in /  1030.0hPa Calm   2mph /  3.2km/h 98% 0in /  0.0mm
04:06 36.1 °F /  2.3 °C 35.8 °F /  2.1 °C 30.4in /  1030.0hPa Calm   2.7mph /  4.3km/h 98% 0in /  0.0mm
04:11 36.9 °F /  2.7 °C 36.3 °F /  2.4 °C 30.4in /  1030.0hPa Calm   2.7mph /  4.3km/h 98% 0in /  0.0mm
04:16 36.9 °F /  2.7 °C 36.3 °F /  2.4 °C 30.4in /  1030.0hPa Calm   0.9mph /  1.4km/h 98% 0in /  0.0mm
04:21 37 °F /  2.8 °C 36.7 °F /  2.6 °C 30.4in /  1030.0hPa Calm     98% 0in /  0.0mm
04:26 37 °F /  2.8 °C 36.7 °F /  2.6 °C 30.4in /  1030.0hPa Calm     98% 0in /  0.0mm
04:31 37 °F /  2.8 °C 36.7 °F /  2.6 °C 30.4in /  1030.0hPa Calm   1.6mph /  2.6km/h 98% 0in /  0.0mm
04:36 37 °F /  2.8 °C 36.7 °F /  2.6 °C 30.4in /  1030.0hPa WSW 3.1mph /  5.0km/h 3.6mph /  5.8km/h 98% 0in /  0.0mm
04:41 37.2 °F /  2.9 °C 36.9 °F /  2.7 °C 30.4in /  1030.0hPa Calm   3.6mph /  5.8km/h 98% 0in /  0.0mm
04:46 37.6 °F /  3.1 °C 37 °F /  2.8 °C 30.4in /  1030.0hPa Calm   2.5mph /  4.0km/h 98% 0in /  0.0mm
04:47 37.6 °F /  3.1 °C 37 °F /  2.8 °C 30.4in /  1030.0hPa Calm   2.5mph /  4.0km/h 98% 0in /  0.0mm
04:52 37.8 °F /  3.2 °C 37.2 °F /  2.9 °C 30.4in /  1030.0hPa Calm   2.7mph /  4.3km/h 98% 0in /  0.0mm
04:57 37.9 °F /  3.3 °C 37.6 °F /  3.1 °C 30.4in /  1030.0hPa West 2.7mph /  4.3km/h 2.7mph /  4.3km/h 98% 0in /  0.0mm
05:02 38.5 °F /  3.6 °C 37.8 °F /  3.2 °C 30.4in /  1030.0hPa Calm   2.7mph /  4.3km/h 98% 0in /  0.0mm
05:07 38.7 °F /  3.7 °C 38.1 °F /  3.4 °C 30.4in /  1030.0hPa Calm   2.7mph /  4.3km/h 98% 0in /  0.0mm
05:12 39.2 °F /  4.0 °C 38.7 °F /  3.7 °C 30.4in /  1030.0hPa WNW 2mph /  3.2km/h 2.7mph /  4.3km/h 98% 0in /  0.0mm
05:17 39.4 °F /  4.1 °C 38.8 °F /  3.8 °C 30.4in /  1030.0hPa West 0.9mph /  1.4km/h 2.7mph /  4.3km/h 98% 0in /  0.0mm
05:22 39.7 °F /  4.3 °C 39.2 °F /  4.0 °C 30.4in /  1030.0hPa Calm   2.5mph /  4.0km/h 98% 0in /  0.0mm
05:27 40.1 °F /  4.5 °C 39.6 °F /  4.2 °C 30.4in /  1030.0hPa Calm   2.7mph /  4.3km/h 98% 0in /  0.0mm
05:32 39.7 °F /  4.3 °C 39.2 °F /  4.0 °C 30.4in /  1030.0hPa Calm   2.7mph /  4.3km/h 98% 0in /  0.0mm
05:37 39.2 °F /  4.0 °C 38.7 °F /  3.7 °C 30.4in /  1030.0hPa Calm     98% 0in /  0.0mm
05:42 38.8 °F /  3.8 °C 38.5 °F /  3.6 °C 30.4in /  1030.0hPa Calm     98% 0in /  0.0mm
05:47 38.7 °F /  3.7 °C 38.1 °F /  3.4 °C 30.4in /  1030.0hPa Calm     98% 0in /  0.0mm
05:52 38.5 °F /  3.6 °C 37.8 °F /  3.2 °C 30.4in /  1030.0hPa Calm     98% 0in /  0.0mm
05:57 38.1 °F /  3.4 °C 37.8 °F /  3.2 °C 30.4in /  1030.0hPa Calm     98% 0in /  0.0mm
06:02 37.9 °F /  3.3 °C 37.6 °F /  3.1 °C 30.4in /  1030.0hPa Calm     98% 0in /  0.0mm
06:07 37.8 °F /  3.2 °C 37.2 °F /  2.9 °C 30.4in /  1030.0hPa Calm     98% 0in /  0.0mm
06:12 37.8 °F /  3.2 °C 37.2 °F /  2.9 °C 30.4in /  1030.0hPa Calm     98% 0in /  0.0mm
06:17 37.2 °F /  2.9 °C 36.9 °F /  2.7 °C 30.4in /  1030.0hPa Calm     98% 0in /  0.0mm
06:22 37 °F /  2.8 °C 36.7 °F /  2.6 °C 30.4in /  1030.0hPa Calm     98% 0in /  0.0mm
06:27 36.9 °F /  2.7 °C 36.3 °F /  2.4 °C 30.4in /  1030.0hPa Calm     98% 0in /  0.0mm
06:32 36.9 °F /  2.7 °C 36.3 °F /  2.4 °C 30.4in /  1030.0hPa Calm     98% 0in /  0.0mm
06:37 36.7 °F /  2.6 °C 36.1 °F /  2.3 °C 30.4in /  1029.0hPa Calm     98% 0in /  0.0mm
06:42 36.3 °F /  2.4 °C 36 °F /  2.2 °C 30.4in /  1029.0hPa Calm     98% 0in /  0.0mm
06:47 36.1 °F /  2.3 °C 35.8 °F /  2.1 °C 30.4in /  1029.0hPa Calm     98% 0in /  0.0mm
06:52 36.1 °F /  2.3 °C 35.4 °F /  1.9 °C 30.4in /  1029.0hPa Calm     98% 0in /  0.0mm
06:57 35.8 °F /  2.1 °C 35.2 °F /  1.8 °C 30.4in /  1029.0hPa Calm     98% 0in /  0.0mm
07:03 35.4 °F /  1.9 °C 34.9 °F /  1.6 °C 30.4in /  1029.0hPa Calm     98% 0in /  0.0mm
07:08 35.1 °F /  1.7 °C 34.5 °F /  1.4 °C 30.4in /  1030.0hPa Calm     98% 0in /  0.0mm
07:13 34.5 °F /  1.4 °C 34.2 °F /  1.2 °C 30.4in /  1030.0hPa Calm     98% 0in /  0.0mm
07:18 34.5 °F /  1.4 °C 34.2 °F /  1.2 °C 30.4in /  1030.0hPa Calm     98% 0in /  0.0mm
07:23 34.9 °F /  1.6 °C 34.3 °F /  1.3 °C 30.4in /  1029.0hPa Calm     98% 0in /  0.0mm
07:28 34.9 °F /  1.6 °C 34.3 °F /  1.3 °C 30.4in /  1029.0hPa Calm     98% 0in /  0.0mm
07:33 34.5 °F /  1.4 °C 34 °F /  1.1 °C 30.4in /  1029.0hPa Calm     98% 0in /  0.0mm
07:38 34.5 °F /  1.4 °C 34 °F /  1.1 °C 30.4in /  1030.0hPa Calm     98% 0in /  0.0mm
07:43 34.5 °F /  1.4 °C 34 °F /  1.1 °C 30.4in /  1030.0hPa Calm     98% 0in /  0.0mm
07:48 34.5 °F /  1.4 °C 34 °F /  1.1 °C 30.4in /  1030.0hPa Calm     98% 0in /  0.0mm
07:53 34.5 °F /  1.4 °C 34 °F /  1.1 °C 30.4in /  1030.0hPa Calm     98% 0in /  0.0mm
07:58 34.3 °F /  1.3 °C 33.8 °F /  1.0 °C 30.4in /  1030.0hPa Calm     98% 0in /  0.0mm
08:03 34 °F /  1.1 °C 33.4 °F /  0.8 °C 30.4in /  1030.0hPa Calm     98% 0in /  0.0mm
08:08 34 °F /  1.1 °C 33.4 °F /  0.8 °C 30.4in /  1030.0hPa Calm   3.1mph /  5.0km/h 98% 0in /  0.0mm
08:13 34 °F /  1.1 °C 33.4 °F /  0.8 °C 30.4in /  1030.0hPa Calm   3.1mph /  5.0km/h 98% 0in /  0.0mm
08:18 34.2 °F /  1.2 °C 33.6 °F /  0.9 °C 30.4in /  1030.0hPa Calm     98% 0in /  0.0mm
08:23 34.3 °F /  1.3 °C 33.8 °F /  1.0 °C 30.4in /  1030.0hPa Calm     98% 0in /  0.0mm
08:28 34.5 °F /  1.4 °C 34 °F /  1.1 °C 30.4in /  1030.0hPa Calm     98% 0in /  0.0mm
08:33 34.9 °F /  1.6 °C 34.3 °F /  1.3 °C 30.4in /  1030.0hPa Calm     98% 0in /  0.0mm
08:38 34.9 °F /  1.6 °C 34.3 °F /  1.3 °C 30.4in /  1030.0hPa Calm     98% 0in /  0.0mm
08:43 35.1 °F /  1.7 °C 34.5 °F /  1.4 °C 30.4in /  1030.0hPa Calm     98% 0in /  0.0mm
08:48 35.2 °F /  1.8 °C 34.7 °F /  1.5 °C 30.4in /  1030.0hPa Calm     98% 0in /  0.0mm
08:53 35.4 °F /  1.9 °C 34.9 °F /  1.6 °C 30.4in /  1030.0hPa Calm     98% 0in /  0.0mm
08:58 35.4 °F /  1.9 °C 35.1 °F /  1.7 °C 30.4in /  1030.0hPa Calm     98% 0in /  0.0mm
09:03 35.4 °F /  1.9 °C 35.1 °F /  1.7 °C 30.4in /  1030.0hPa Calm   2.5mph /  4.0km/h 98% 0in /  0.0mm
09:08 35.8 °F /  2.1 °C 35.2 °F /  1.8 °C 30.4in /  1030.0hPa Calm   2.5mph /  4.0km/h 98% 0in /  0.0mm
09:13 36 °F /  2.2 °C 35.4 °F /  1.9 °C 30.4in /  1030.0hPa Calm   2.5mph /  4.0km/h 98% 0in /  0.0mm
09:18 36.1 °F /  2.3 °C 35.4 °F /  1.9 °C 30.4in /  1030.0hPa Calm     98% 0in /  0.0mm
09:23 36.1 °F /  2.3 °C 35.8 °F /  2.1 °C 30.4in /  1030.0hPa Calm     98% 0in /  0.0mm
09:28 36.3 °F /  2.4 °C 36 °F /  2.2 °C 30.4in /  1030.0hPa Calm     98% 0in /  0.0mm
09:33 36.7 °F /  2.6 °C 36.1 °F /  2.3 °C 30.4in /  1030.0hPa Calm     98% 0in /  0.0mm
09:38 36.9 °F /  2.7 °C 36.3 °F /  2.4 °C 30.4in /  1030.0hPa Calm   0.9mph /  1.4km/h 98% 0in /  0.0mm
09:43 37.2 °F /  2.9 °C 36.9 °F /  2.7 °C 30.4in /  1030.0hPa West 2.7mph /  4.3km/h 2.7mph /  4.3km/h 98% 0in /  0.0mm
09:48 37.6 °F /  3.1 °C 37 °F /  2.8 °C 30.4in /  1030.0hPa West 4.7mph /  7.6km/h 4.9mph /  7.9km/h 98% 0in /  0.0mm
09:53 37.8 °F /  3.2 °C 37.2 °F /  2.9 °C 30.4in /  1031.0hPa West 2mph /  3.2km/h 5.4mph /  8.7km/h 98% 0in /  0.0mm
09:58 37.9 °F /  3.3 °C 37.6 °F /  3.1 °C 30.4in /  1031.0hPa Calm   5.4mph /  8.7km/h 98% 0in /  0.0mm
10:03 38.1 °F /  3.4 °C 37.8 °F /  3.2 °C 30.4in /  1031.0hPa Calm   3.1mph /  5.0km/h 98% 0in /  0.0mm
10:08 38.7 °F /  3.7 °C 38.1 °F /  3.4 °C 30.4in /  1031.0hPa Calm   2.5mph /  4.0km/h 98% 0in /  0.0mm
10:13 39.2 °F /  4.0 °C 38.7 °F /  3.7 °C 30.4in /  1031.0hPa Calm   3.1mph /  5.0km/h 98% 0in /  0.0mm
10:18 39.6 °F /  4.2 °C 39 °F /  3.9 °C 30.4in /  1031.0hPa Calm   3.1mph /  5.0km/h 98% 0in /  0.0mm
10:23 39.9 °F /  4.4 °C 39.4 °F /  4.1 °C 30.4in /  1030.0hPa Calm   2.5mph /  4.0km/h 98% 0in /  0.0mm
10:28 40.3 °F /  4.6 °C 39.7 °F /  4.3 °C 30.4in /  1030.0hPa Calm     98% 0in /  0.0mm
10:33 40.8 °F /  4.9 °C 40.3 °F /  4.6 °C 30.4in /  1030.0hPa West 3.4mph /  5.5km/h 3.4mph /  5.5km/h 98% 0in /  0.0mm
10:38 41.4 °F /  5.2 °C 40.8 °F /  4.9 °C 30.4in /  1031.0hPa Calm   3.4mph /  5.5km/h 98% 0in /  0.0mm
10:43 41.9 °F /  5.5 °C 41.4 °F /  5.2 °C 30.4in /  1031.0hPa West 6mph /  9.7km/h 6mph /  9.7km/h 98% 0in /  0.0mm
10:48 42.6 °F /  5.9 °C 42.1 °F /  5.6 °C 30.4in /  1031.0hPa WSW 2.9mph /  4.7km/h 6mph /  9.7km/h 98% 0in /  0.0mm
10:53 42.8 °F /  6.0 °C 42.3 °F /  5.7 °C 30.4in /  1030.0hPa WNW 4.3mph /  6.9km/h 8.5mph /  13.7km/h 98% 0in /  0.0mm
10:58 43.2 °F /  6.2 °C 42.6 °F /  5.9 °C 30.4in /  1030.0hPa WNW 4.3mph /  6.9km/h 8.5mph /  13.7km/h 98% 0in /  0.0mm
11:04 43.5 °F /  6.4 °C 43 °F /  6.1 °C 30.4in /  1030.0hPa WSW 6mph /  9.7km/h 8.5mph /  13.7km/h 98% 0in /  0.0mm
11:08 43.5 °F /  6.4 °C 43 °F /  6.1 °C 30.4in /  1030.0hPa WSW 8.5mph /  13.7km/h 9.8mph /  15.8km/h 98% 0in /  0.0mm
11:14 43.9 °F /  6.6 °C 43.3 °F /  6.3 °C 30.4in /  1030.0hPa West 6.3mph /  10.1km/h 9.8mph /  15.8km/h 98% 0in /  0.0mm
11:19 44.1 °F /  6.7 °C 43.5 °F /  6.4 °C 30.4in /  1030.0hPa West 3.4mph /  5.5km/h 7.2mph /  11.6km/h 98% 0in /  0.0mm
11:24 44.2 °F /  6.8 °C 43.5 °F /  6.4 °C 30.4in /  1030.0hPa West 6.3mph /  10.1km/h 8.7mph /  14.0km/h 98% 0in /  0.0mm
11:29 44.2 °F /  6.8 °C 43.9 °F /  6.6 °C 30.4in /  1030.0hPa WSW 3.8mph /  6.1km/h 8.7mph /  14.0km/h 98% 0in /  0.0mm
11:34 44.8 °F /  7.1 °C 44.2 °F /  6.8 °C 30.4in /  1030.0hPa North 2.9mph /  4.7km/h 7.8mph /  12.6km/h 98% 0in /  0.0mm
11:39 45 °F /  7.2 °C 44.2 °F /  6.8 °C 30.4in /  1030.0hPa West 5.8mph /  9.3km/h 9.2mph /  14.8km/h 98% 0in /  0.0mm
11:44 45.1 °F /  7.3 °C 44.4 °F /  6.9 °C 30.4in /  1030.0hPa West 7.8mph /  12.6km/h 10.7mph /  17.2km/h 98% 0in /  0.0mm
11:49 45.1 °F /  7.3 °C 44.8 °F /  7.1 °C 30.4in /  1030.0hPa West 7.6mph /  12.2km/h 10.7mph /  17.2km/h 98% 0in /  0.0mm
11:54 45.9 °F /  7.7 °C 45.1 °F /  7.3 °C 30.4in /  1030.0hPa WSW 7.8mph /  12.6km/h 10.5mph /  16.9km/h 98% 0in /  0.0mm
11:59 45.9 °F /  7.7 °C 45.3 °F /  7.4 °C 30.4in /  1030.0hPa WSW 7.6mph /  12.2km/h 10.3mph /  16.6km/h 98% 0in /  0.0mm
12:04 45.9 °F /  7.7 °C 45.3 °F /  7.4 °C 30.4in /  1030.0hPa WSW 7.2mph /  11.6km/h 10.5mph /  16.9km/h 98% 0in /  0.0mm
12:09 46 °F /  7.8 °C 45.7 °F /  7.6 °C 30.4in /  1030.0hPa West 7.6mph /  12.2km/h 10.5mph /  16.9km/h 98% 0in /  0.0mm
12:14 46.6 °F /  8.1 °C 45.9 °F /  7.7 °C 30.4in /  1030.0hPa WSW 8.7mph /  14.0km/h 10.1mph /  16.3km/h 98% 0in /  0.0mm
12:19 46.2 °F /  7.9 °C 45.9 °F /  7.7 °C 30.4in /  1030.0hPa West 11mph /  17.7km/h 12.8mph /  20.6km/h 98% 0in /  0.0mm
12:24 46.2 °F /  7.9 °C 45.9 °F /  7.7 °C 30.4in /  1030.0hPa WSW 6mph /  9.7km/h 12.8mph /  20.6km/h 98% 0in /  0.0mm
12:29 46.2 °F /  7.9 °C 45.9 °F /  7.7 °C 30.4in /  1030.0hPa West 10.3mph /  16.6km/h 10.5mph /  16.9km/h 98% 0in /  0.0mm
12:34 46.6 °F /  8.1 °C 45.9 °F /  7.7 °C 30.4in /  1030.0hPa WSW 9.6mph /  15.4km/h 12.1mph /  19.5km/h 98% 0in /  0.0mm
12:39 46.6 °F /  8.1 °C 46 °F /  7.8 °C 30.4in /  1030.0hPa WSW 10.3mph /  16.6km/h 12.1mph /  19.5km/h 98% 0in /  0.0mm
12:44 46.6 °F /  8.1 °C 46 °F /  7.8 °C 30.4in /  1030.0hPa West 10.1mph /  16.3km/h 12.3mph /  19.8km/h 98% 0in /  0.0mm
12:49 47.1 °F /  8.4 °C 46.6 °F /  8.1 °C 30.4in /  1030.0hPa WSW 10.1mph /  16.3km/h 12.3mph /  19.8km/h 98% 0in /  0.0mm
12:54 47.3 °F /  8.5 °C 46.8 °F /  8.2 °C 30.4in /  1030.0hPa WSW 9.4mph /  15.1km/h 11.4mph /  18.3km/h 98% 0in /  0.0mm
12:59 47.3 °F /  8.5 °C 46.8 °F /  8.2 °C 30.4in /  1030.0hPa WSW 6.5mph /  10.5km/h 11.4mph /  18.3km/h 98% 0in /  0.0mm
13:04 47.3 °F /  8.5 °C 46.8 °F /  8.2 °C 30.4in /  1030.0hPa WSW 5.4mph /  8.7km/h 10.7mph /  17.2km/h 98% 0in /  0.0mm
13:09 47.1 °F /  8.4 °C 46.6 °F /  8.1 °C 30.4in /  1030.0hPa WSW 8.5mph /  13.7km/h 10.1mph /  16.3km/h 98% 0in /  0.0mm
13:14 46.9 °F /  8.3 °C 46.6 °F /  8.1 °C 30.4in /  1030.0hPa WSW 8.1mph /  13.0km/h 11mph /  17.7km/h 98% 0in /  0.0mm
13:19 46.8 °F /  8.2 °C 46.2 °F /  7.9 °C 30.4in /  1030.0hPa WSW 5.4mph /  8.7km/h 11mph /  17.7km/h 98% 0in /  0.0mm
13:24 46.9 °F /  8.3 °C 46.6 °F /  8.1 °C 30.4in /  1029.0hPa WSW 5.6mph /  9.0km/h 8.1mph /  13.0km/h 98% 0in /  0.0mm
13:29 46.9 °F /  8.3 °C 46.6 °F /  8.1 °C 30.4in /  1029.0hPa WSW 6.5mph /  10.5km/h 7.4mph /  11.9km/h 98% 0in /  0.0mm
13:34 46.9 °F /  8.3 °C 46.6 °F /  8.1 °C 30.4in /  1029.0hPa WSW 5.8mph /  9.3km/h 8.1mph /  13.0km/h 98% 0in /  0.0mm
13:39 46.9 °F /  8.3 °C 46.6 °F /  8.1 °C 30.4in /  1029.0hPa WSW 6.9mph /  11.1km/h 8.1mph /  13.0km/h 98% 0in /  0.0mm
13:44 47.1 °F /  8.4 °C 46.6 °F /  8.1 °C 30.4in /  1029.0hPa WSW 6.3mph /  10.1km/h 7.8mph /  12.6km/h 98% 0in /  0.0mm
13:49 47.5 °F /  8.6 °C 46.9 °F /  8.3 °C 30.4in /  1029.0hPa West 6.5mph /  10.5km/h 6.9mph /  11.1km/h 98% 0in /  0.0mm
13:54 47.7 °F /  8.7 °C 47.1 °F /  8.4 °C 30.4in /  1028.0hPa WSW 3.8mph /  6.1km/h 6.5mph /  10.5km/h 98% 0in /  0.0mm
13:59 48 °F /  8.9 °C 47.5 °F /  8.6 °C 30.4in /  1028.0hPa WSW 3.6mph /  5.8km/h 6.3mph /  10.1km/h 98% 0in /  0.0mm
14:04 48.2 °F /  9.0 °C 47.7 °F /  8.7 °C 30.4in /  1028.0hPa WSW 3.6mph /  5.8km/h 6.5mph /  10.5km/h 98% 0in /  0.0mm
14:09 48.6 °F /  9.2 °C 48 °F /  8.9 °C 30.4in /  1029.0hPa WSW 5.8mph /  9.3km/h 6.5mph /  10.5km/h 98% 0in /  0.0mm
14:14 48.7 °F /  9.3 °C 48.2 °F /  9.0 °C 30.4in /  1029.0hPa WSW 5.4mph /  8.7km/h 6.5mph /  10.5km/h 98% 0in /  0.0mm
14:19 48.9 °F /  9.4 °C 48.4 °F /  9.1 °C 30.4in /  1029.0hPa WSW 7.4mph /  11.9km/h 7.4mph /  11.9km/h 98% 0in /  0.0mm
14:24 49.3 °F /  9.6 °C 48.7 °F /  9.3 °C 30.4in /  1030.0hPa WSW 6mph /  9.7km/h 7.4mph /  11.9km/h 98% 0in /  0.0mm
14:29 49.3 °F /  9.6 °C 48.7 °F /  9.3 °C 30.4in /  1030.0hPa WSW 5.4mph /  8.7km/h 7.4mph /  11.9km/h 98% 0in /  0.0mm
14:34 49.3 °F /  9.6 °C 48.7 °F /  9.3 °C 30.4in /  1030.0hPa WSW 4.9mph /  7.9km/h 7.6mph /  12.2km/h 98% 0in /  0.0mm
14:39 49.5 °F /  9.7 °C 48.9 °F /  9.4 °C 30.4in /  1029.0hPa WSW 4.9mph /  7.9km/h 7.6mph /  12.2km/h 98% 0in /  0.0mm
14:44 49.5 °F /  9.7 °C 48.9 °F /  9.4 °C 30.4in /  1029.0hPa WSW 4.9mph /  7.9km/h 6mph /  9.7km/h 98% 0in /  0.0mm
14:49 49.5 °F /  9.7 °C 48.9 °F /  9.4 °C 30.4in /  1029.0hPa West 3.6mph /  5.8km/h 6.5mph /  10.5km/h 98% 0in /  0.0mm
14:54 49.6 °F /  9.8 °C 49.1 °F /  9.5 °C 30.4in /  1029.0hPa West 6.5mph /  10.5km/h 6.5mph /  10.5km/h 98% 0in /  0.0mm
14:59 49.5 °F /  9.7 °C 48.9 °F /  9.4 °C 30.4in /  1029.0hPa West 7.8mph /  12.6km/h 8.1mph /  13.0km/h 98% 0in /  0.0mm
15:04 49.6 °F /  9.8 °C 48.7 °F /  9.3 °C 30.4in /  1029.0hPa West 3.4mph /  5.5km/h 8.1mph /  13.0km/h 97% 0in /  0.0mm
15:09 49.8 °F /  9.9 °C 48.9 °F /  9.4 °C 30.4in /  1029.0hPa WSW 6.5mph /  10.5km/h 7.8mph /  12.6km/h 97% 0in /  0.0mm
15:15 50 °F /  10.0 °C 49.3 °F /  9.6 °C 30.4in /  1029.0hPa West 5.4mph /  8.7km/h 8.7mph /  14.0km/h 97% 0in /  0.0mm
15:20 50 °F /  10.0 °C 49.3 °F /  9.6 °C 30.4in /  1029.0hPa West 7.6mph /  12.2km/h 8.7mph /  14.0km/h 97% 0in /  0.0mm
15:25 50 °F /  10.0 °C 49.3 °F /  9.6 °C 30.4in /  1028.0hPa West 4.5mph /  7.2km/h 8.5mph /  13.7km/h 97% 0in /  0.0mm
15:30 50 °F /  10.0 °C 48.9 °F /  9.4 °C 30.4in /  1028.0hPa WSW 5.4mph /  8.7km/h 8.5mph /  13.7km/h 96% 0in /  0.0mm
15:35 50.5 °F /  10.3 °C 49.5 °F /  9.7 °C 30.4in /  1028.0hPa WSW 5.4mph /  8.7km/h 7.8mph /  12.6km/h 96% 0in /  0.0mm
15:40 50.9 °F /  10.5 °C 49.8 °F /  9.9 °C 30.4in /  1028.0hPa WSW 5.6mph /  9.0km/h 7.8mph /  12.6km/h 96% 0in /  0.0mm
15:45 51.3 °F /  10.7 °C 50.2 °F /  10.1 °C 30.4in /  1028.0hPa WSW 3.8mph /  6.1km/h 6.7mph /  10.8km/h 96% 0in /  0.0mm
15:50 51.3 °F /  10.7 °C 50.2 °F /  10.1 °C 30.4in /  1028.0hPa WSW 4.3mph /  6.9km/h 6.3mph /  10.1km/h 96% 0in /  0.0mm
15:55 52 °F /  11.1 °C 50.5 °F /  10.3 °C 30.4in /  1028.0hPa WSW 4mph /  6.4km/h 6.3mph /  10.1km/h 95% 0in /  0.0mm
16:00 53.1 °F /  11.7 °C 51.6 °F /  10.9 °C 30.4in /  1028.0hPa WSW 3.8mph /  6.1km/h 6.3mph /  10.1km/h 95% 0in /  0.0mm
16:05 53.8 °F /  12.1 °C 52.3 °F /  11.3 °C 30.4in /  1028.0hPa West 4.9mph /  7.9km/h 5.6mph /  9.0km/h 95% 0in /  0.0mm
16:10 53.8 °F /  12.1 °C 52 °F /  11.1 °C 30.4in /  1028.0hPa West 6.3mph /  10.1km/h 7.2mph /  11.6km/h 94% 0in /  0.0mm
16:15 53.4 °F /  11.9 °C 51.4 °F /  10.8 °C 30.4in /  1028.0hPa West 6.5mph /  10.5km/h 7.6mph /  12.2km/h 93% 0in /  0.0mm
16:20 53.4 °F /  11.9 °C 51.3 °F /  10.7 °C 30.4in /  1028.0hPa West 6mph /  9.7km/h 7.6mph /  12.2km/h 92% 0in /  0.0mm
16:25 53.2 °F /  11.8 °C 50.5 °F /  10.3 °C 30.4in /  1028.0hPa West 6mph /  9.7km/h 7.6mph /  12.2km/h 90% 0in /  0.0mm
16:30 53.2 °F /  11.8 °C 50 °F /  10.0 °C 30.4in /  1028.0hPa West 8.7mph /  14.0km/h 8.7mph /  14.0km/h 89% 0in /  0.0mm
16:35 53.2 °F /  11.8 °C 49.5 °F /  9.7 °C 30.4in /  1028.0hPa WSW 5.4mph /  8.7km/h 8.7mph /  14.0km/h 87% 0in /  0.0mm
16:40 52.5 °F /  11.4 °C 48.6 °F /  9.2 °C 30.4in /  1028.0hPa West 5.8mph /  9.3km/h 8.7mph /  14.0km/h 86% 0in /  0.0mm
16:45 52 °F /  11.1 °C 47.7 °F /  8.7 °C 30.4in /  1028.0hPa West 3.6mph /  5.8km/h 8.7mph /  14.0km/h 85% 0in /  0.0mm
16:50 51.6 °F /  10.9 °C 47.1 °F /  8.4 °C 30.4in /  1028.0hPa WSW 6.5mph /  10.5km/h 8.7mph /  14.0km/h 85% 0in /  0.0mm
16:55 51.1 °F /  10.6 °C 46.9 °F /  8.3 °C 30.4in /  1028.0hPa WSW 6mph /  9.7km/h 8.7mph /  14.0km/h 86% 0in /  0.0mm
17:00 50.9 °F /  10.5 °C 46.8 °F /  8.2 °C 30.4in /  1028.0hPa WSW 5.4mph /  8.7km/h 8.1mph /  13.0km/h 86% 0in /  0.0mm
17:05 50.4 °F /  10.2 °C 46.6 °F /  8.1 °C 30.4in /  1028.0hPa WSW 4.3mph /  6.9km/h 7.2mph /  11.6km/h 87% 0in /  0.0mm
17:10 50 °F /  10.0 °C 46.2 °F /  7.9 °C 30.4in /  1028.0hPa WSW 4mph /  6.4km/h 7.2mph /  11.6km/h 87% 0in /  0.0mm
17:15 49.8 °F /  9.9 °C 46 °F /  7.8 °C 30.4in /  1028.0hPa WSW 5.4mph /  8.7km/h 6.5mph /  10.5km/h 87% 0in /  0.0mm
17:20 49.3 °F /  9.6 °C 45.9 °F /  7.7 °C 30.4in /  1028.0hPa WSW 4mph /  6.4km/h 6.5mph /  10.5km/h 88% 0in /  0.0mm
17:25 48.7 °F /  9.3 °C 45.3 °F /  7.4 °C 30.4in /  1028.0hPa WSW 4.5mph /  7.2km/h 5.8mph /  9.3km/h 88% 0in /  0.0mm
17:31 48.6 °F /  9.2 °C 45.5 °F /  7.5 °C 30.4in /  1028.0hPa WSW 4.9mph /  7.9km/h 5.6mph /  9.0km/h 89% 0in /  0.0mm
17:36 48.2 °F /  9.0 °C 45.1 °F /  7.3 °C 30.4in /  1028.0hPa WSW 4mph /  6.4km/h 5.6mph /  9.0km/h 89% 0in /  0.0mm
17:41 47.8 °F /  8.8 °C 44.8 °F /  7.1 °C 30.4in /  1028.0hPa West 3.8mph /  6.1km/h 5.6mph /  9.0km/h 89% 0in /  0.0mm
17:46 47.7 °F /  8.7 °C 45 °F /  7.2 °C 30.4in /  1028.0hPa West 4.7mph /  7.6km/h 5.4mph /  8.7km/h 90% 0in /  0.0mm
17:51 47.3 °F /  8.5 °C 44.6 °F /  7.0 °C 30.4in /  1028.0hPa West 4.7mph /  7.6km/h 5.4mph /  8.7km/h 90% 0in /  0.0mm
17:56 46.9 °F /  8.3 °C 44.2 °F /  6.8 °C 30.4in /  1028.0hPa WSW 3.8mph /  6.1km/h 5.4mph /  8.7km/h 90% 0in /  0.0mm
18:01 46.8 °F /  8.2 °C 44.1 °F /  6.7 °C 30.4in /  1028.0hPa West 4mph /  6.4km/h 5.4mph /  8.7km/h 90% 0in /  0.0mm
18:06 46.6 °F /  8.1 °C 43.9 °F /  6.6 °C 30.4in /  1028.0hPa West 3.6mph /  5.8km/h 4.9mph /  7.9km/h 90% 0in /  0.0mm
18:11 46.6 °F /  8.1 °C 44.1 °F /  6.7 °C 30.3in /  1027.0hPa West 3.1mph /  5.0km/h 6.3mph /  10.1km/h 91% 0in /  0.0mm
18:16 46 °F /  7.8 °C 43.5 °F /  6.4 °C 30.3in /  1027.0hPa West 4.3mph /  6.9km/h 6.3mph /  10.1km/h 91% 0in /  0.0mm
18:21 46 °F /  7.8 °C 43.5 °F /  6.4 °C 30.3in /  1027.0hPa West 5.4mph /  8.7km/h 6.5mph /  10.5km/h 91% 0in /  0.0mm
18:26 45.9 °F /  7.7 °C 43.7 °F /  6.5 °C 30.4in /  1028.0hPa West 5.6mph /  9.0km/h 6.5mph /  10.5km/h 92% 0in /  0.0mm
18:31 45.7 °F /  7.6 °C 43.3 °F /  6.3 °C 30.4in /  1028.0hPa West 5.4mph /  8.7km/h 6.3mph /  10.1km/h 92% 0in /  0.0mm
18:36 45.1 °F /  7.3 °C 43 °F /  6.1 °C 30.4in /  1028.0hPa West 3.1mph /  5.0km/h 6.5mph /  10.5km/h 92% 0in /  0.0mm
18:41 45.1 °F /  7.3 °C 43 °F /  6.1 °C 30.4in /  1028.0hPa West 2.7mph /  4.3km/h 6.5mph /  10.5km/h 92% 0in /  0.0mm
18:46 44.8 °F /  7.1 °C 42.4 °F /  5.8 °C 30.4in /  1028.0hPa West 4.9mph /  7.9km/h 5.8mph /  9.3km/h 92% 0in /  0.0mm
18:51 44.4 °F /  6.9 °C 42.3 °F /  5.7 °C 30.4in /  1028.0hPa WNW 3.8mph /  6.1km/h 5.8mph /  9.3km/h 92% 0in /  0.0mm
18:56 44.4 °F /  6.9 °C 42.6 °F /  5.9 °C 30.4in /  1028.0hPa West 2.7mph /  4.3km/h 5.6mph /  9.0km/h 93% 0in /  0.0mm
19:01 44.2 °F /  6.8 °C 42.4 °F /  5.8 °C 30.4in /  1028.0hPa WSW 3.1mph /  5.0km/h 5.6mph /  9.0km/h 93% 0in /  0.0mm
19:06 43.5 °F /  6.4 °C 41.5 °F /  5.3 °C 30.4in /  1028.0hPa West 3.8mph /  6.1km/h 4.9mph /  7.9km/h 92% 0in /  0.0mm
19:11 43.5 °F /  6.4 °C 41.7 °F /  5.4 °C 30.4in /  1028.0hPa West 5.4mph /  8.7km/h 5.8mph /  9.3km/h 93% 0in /  0.0mm
19:16 43.5 °F /  6.4 °C 41.7 °F /  5.4 °C 30.4in /  1028.0hPa West 4.3mph /  6.9km/h 5.8mph /  9.3km/h 93% 0in /  0.0mm
19:21 43.5 °F /  6.4 °C 41.9 °F /  5.5 °C 30.4in /  1028.0hPa West 3.1mph /  5.0km/h 5.4mph /  8.7km/h 94% 0in /  0.0mm
19:26 43.5 °F /  6.4 °C 41.9 °F /  5.5 °C 30.4in /  1028.0hPa West 4mph /  6.4km/h 5.6mph /  9.0km/h 94% 0in /  0.0mm
19:31 43.5 °F /  6.4 °C 41.9 °F /  5.5 °C 30.4in /  1028.0hPa West 4mph /  6.4km/h 6.5mph /  10.5km/h 94% 0in /  0.0mm
19:36 43.5 °F /  6.4 °C 41.9 °F /  5.5 °C 30.4in /  1028.0hPa WSW 4.9mph /  7.9km/h 6.5mph /  10.5km/h 94% 0in /  0.0mm
19:41 43.3 °F /  6.3 °C 41.7 °F /  5.4 °C 30.4in /  1029.0hPa West 4.9mph /  7.9km/h 6mph /  9.7km/h 94% 0in /  0.0mm
19:46 43.3 °F /  6.3 °C 41.7 °F /  5.4 °C 30.4in /  1029.0hPa West 6mph /  9.7km/h 6.5mph /  10.5km/h 94% 0in /  0.0mm
19:51 43.3 °F /  6.3 °C 42.1 °F /  5.6 °C 30.4in /  1029.0hPa West 4.3mph /  6.9km/h 6.5mph /  10.5km/h 95% 0in /  0.0mm
19:56 43.3 °F /  6.3 °C 42.1 °F /  5.6 °C 30.4in /  1028.0hPa West 4.3mph /  6.9km/h 6.5mph /  10.5km/h 95% 0in /  0.0mm
20:01 43.2 °F /  6.2 °C 41.7 °F /  5.4 °C 30.4in /  1028.0hPa WSW 3.8mph /  6.1km/h 5.4mph /  8.7km/h 95% 0in /  0.0mm
20:06 43.2 °F /  6.2 °C 41.7 °F /  5.4 °C 30.4in /  1028.0hPa WSW 5.6mph /  9.0km/h 5.8mph /  9.3km/h 95% 0in /  0.0mm
20:11 43.2 °F /  6.2 °C 41.7 °F /  5.4 °C 30.4in /  1029.0hPa West 4.9mph /  7.9km/h 5.8mph /  9.3km/h 95% 0in /  0.0mm
20:16 43.3 °F /  6.3 °C 42.1 °F /  5.6 °C 30.4in /  1029.0hPa West 3.1mph /  5.0km/h 5.6mph /  9.0km/h 95% 0in /  0.0mm
20:21 43.3 °F /  6.3 °C 42.1 °F /  5.6 °C 30.4in /  1029.0hPa West 4.3mph /  6.9km/h 4.9mph /  7.9km/h 95% 0in /  0.0mm
20:27 43.3 °F /  6.3 °C 42.3 °F /  5.7 °C 30.4in /  1028.0hPa West 3.1mph /  5.0km/h 4.7mph /  7.6km/h 96% 0in /  0.0mm
20:32 43.5 °F /  6.4 °C 42.4 °F /  5.8 °C 30.4in /  1028.0hPa West 4.9mph /  7.9km/h 4.9mph /  7.9km/h 96% 0in /  0.0mm
20:37 43.5 °F /  6.4 °C 42.4 °F /  5.8 °C 30.4in /  1028.0hPa WNW 4mph /  6.4km/h 5.4mph /  8.7km/h 96% 0in /  0.0mm
20:42 43.5 °F /  6.4 °C 42.4 °F /  5.8 °C 30.4in /  1028.0hPa West 3.6mph /  5.8km/h 5.4mph /  8.7km/h 96% 0in /  0.0mm
20:47 43.3 °F /  6.3 °C 42.3 °F /  5.7 °C 30.4in /  1028.0hPa WSW 4.7mph /  7.6km/h 4.9mph /  7.9km/h 96% 0in /  0.0mm
20:52 43.2 °F /  6.2 °C 42.1 °F /  5.6 °C 30.4in /  1028.0hPa WSW 3.6mph /  5.8km/h 4.7mph /  7.6km/h 96% 0in /  0.0mm
20:57 43 °F /  6.1 °C 41.9 °F /  5.5 °C 30.4in /  1029.0hPa WSW 3.1mph /  5.0km/h 4.3mph /  6.9km/h 96% 0in /  0.0mm
21:02 42.8 °F /  6.0 °C 41.7 °F /  5.4 °C 30.4in /  1029.0hPa WSW 4mph /  6.4km/h 4.7mph /  7.6km/h 96% 0in /  0.0mm
21:07 42.6 °F /  5.9 °C 41.5 °F /  5.3 °C 30.4in /  1028.0hPa WSW 5.4mph /  8.7km/h 5.6mph /  9.0km/h 96% 0in /  0.0mm
21:12 42.8 °F /  6.0 °C 41.7 °F /  5.4 °C 30.4in /  1028.0hPa WSW 5.4mph /  8.7km/h 6.5mph /  10.5km/h 96% 0in /  0.0mm
21:17 43 °F /  6.1 °C 41.9 °F /  5.5 °C 30.4in /  1028.0hPa WSW 5.8mph /  9.3km/h 7.2mph /  11.6km/h 96% 0in /  0.0mm
21:22 43.3 °F /  6.3 °C 42.3 °F /  5.7 °C 30.4in /  1028.0hPa West 7.8mph /  12.6km/h 7.8mph /  12.6km/h 96% 0in /  0.0mm
21:27 43.5 °F /  6.4 °C 42.6 °F /  5.9 °C 30.4in /  1028.0hPa West 5.8mph /  9.3km/h 8.1mph /  13.0km/h 97% 0in /  0.0mm
21:32 43.5 °F /  6.4 °C 42.8 °F /  6.0 °C 30.4in /  1028.0hPa West 6.7mph /  10.8km/h 8.1mph /  13.0km/h 97% 0in /  0.0mm
21:37 43.9 °F /  6.6 °C 43 °F /  6.1 °C 30.4in /  1028.0hPa WSW 6.3mph /  10.1km/h 8.5mph /  13.7km/h 97% 0in /  0.0mm
21:42 44.1 °F /  6.7 °C 43.2 °F /  6.2 °C 30.4in /  1028.0hPa WSW 6mph /  9.7km/h 8.5mph /  13.7km/h 97% 0in /  0.0mm
21:47 44.1 °F /  6.7 °C 43.2 °F /  6.2 °C 30.4in /  1028.0hPa West 5.6mph /  9.0km/h 6.5mph /  10.5km/h 97% 0in /  0.0mm
21:52 44.1 °F /  6.7 °C 43.2 °F /  6.2 °C 30.4in /  1028.0hPa West 4.3mph /  6.9km/h 6.5mph /  10.5km/h 97% 0in /  0.0mm
21:57 44.1 °F /  6.7 °C 43.2 °F /  6.2 °C 30.4in /  1028.0hPa West 4mph /  6.4km/h 5.8mph /  9.3km/h 97% 0in /  0.0mm
22:02 43.9 °F /  6.6 °C 43 °F /  6.1 °C 30.4in /  1028.0hPa WSW 4.3mph /  6.9km/h 5.8mph /  9.3km/h 97% 0in /  0.0mm
22:07 43.9 °F /  6.6 °C 43 °F /  6.1 °C 30.4in /  1028.0hPa WSW 4.3mph /  6.9km/h 6mph /  9.7km/h 97% 0in /  0.0mm
22:12 43.9 °F /  6.6 °C 43 °F /  6.1 °C 30.4in /  1028.0hPa WSW 5.6mph /  9.0km/h 6.7mph /  10.8km/h 97% 0in /  0.0mm
22:17 43.9 °F /  6.6 °C 43 °F /  6.1 °C 30.4in /  1028.0hPa WSW 5.6mph /  9.0km/h 6.7mph /  10.8km/h 97% 0in /  0.0mm
22:22 43.5 °F /  6.4 °C 42.8 °F /  6.0 °C 30.4in /  1028.0hPa West 6.3mph /  10.1km/h 7.4mph /  11.9km/h 97% 0in /  0.0mm
22:27 43.9 °F /  6.6 °C 43 °F /  6.1 °C 30.4in /  1028.0hPa West 5.8mph /  9.3km/h 7.6mph /  12.2km/h 97% 0in /  0.0mm
22:32 43.9 °F /  6.6 °C 43 °F /  6.1 °C 30.4in /  1028.0hPa WSW 7.4mph /  11.9km/h 7.6mph /  12.2km/h 97% 0in /  0.0mm
22:38 43.9 °F /  6.6 °C 43 °F /  6.1 °C 30.3in /  1027.0hPa WSW 6.5mph /  10.5km/h 7.6mph /  12.2km/h 97% 0in /  0.0mm
22:43 44.1 °F /  6.7 °C 43.2 °F /  6.2 °C 30.3in /  1027.0hPa West 6.3mph /  10.1km/h 8.1mph /  13.0km/h 97% 0in /  0.0mm
22:48 44.1 °F /  6.7 °C 43.2 °F /  6.2 °C 30.3in /  1027.0hPa WSW 5.6mph /  9.0km/h 8.1mph /  13.0km/h 97% 0in /  0.0mm
22:53 44.1 °F /  6.7 °C 43.2 °F /  6.2 °C 30.3in /  1027.0hPa West 7.6mph /  12.2km/h 7.6mph /  12.2km/h 97% 0in /  0.0mm
22:58 44.1 °F /  6.7 °C 43.5 °F /  6.4 °C 30.3in /  1027.0hPa West 4.5mph /  7.2km/h 7.6mph /  12.2km/h 98% 0in /  0.0mm
23:03 44.2 °F /  6.8 °C 43.5 °F /  6.4 °C 30.3in /  1027.0hPa WSW 6.5mph /  10.5km/h 8.1mph /  13.0km/h 98% 0in /  0.0mm
23:08 44.1 °F /  6.7 °C 43.5 °F /  6.4 °C 30.3in /  1027.0hPa WSW 5.8mph /  9.3km/h 8.1mph /  13.0km/h 98% 0in /  0.0mm
23:13 44.1 °F /  6.7 °C 43.5 °F /  6.4 °C 30.3in /  1027.0hPa West 4.9mph /  7.9km/h 7.6mph /  12.2km/h 98% 0in /  0.0mm
23:18 44.1 °F /  6.7 °C 43.5 °F /  6.4 °C 30.3in /  1027.0hPa WSW 4mph /  6.4km/h 6.3mph /  10.1km/h 98% 0in /  0.0mm
23:23 43.9 °F /  6.6 °C 43.3 °F /  6.3 °C 30.3in /  1027.0hPa West 4.9mph /  7.9km/h 6.3mph /  10.1km/h 98% 0in /  0.0mm
23:28 44.1 °F /  6.7 °C 43.5 °F /  6.4 °C 30.3in /  1027.0hPa West 4.9mph /  7.9km/h 6.5mph /  10.5km/h 98% 0in /  0.0mm
23:33 44.1 °F /  6.7 °C 43.5 °F /  6.4 °C 30.3in /  1027.0hPa West 4.9mph /  7.9km/h 6.5mph /  10.5km/h 98% 0in /  0.0mm
23:38 43.9 °F /  6.6 °C 43.3 °F /  6.3 °C 30.3in /  1027.0hPa West 4.9mph /  7.9km/h 6.3mph /  10.1km/h 98% 0in /  0.0mm
23:43 43.9 °F /  6.6 °C 43.3 °F /  6.3 °C 30.3in /  1027.0hPa WSW 4.3mph /  6.9km/h 5.8mph /  9.3km/h 98% 0in /  0.0mm
23:48 43.5 °F /  6.4 °C 43.2 °F /  6.2 °C 30.3in /  1027.0hPa West 4.9mph /  7.9km/h 5.8mph /  9.3km/h 98% 0in /  0.0mm
23:53 43.5 °F /  6.4 °C 42.6 °F /  5.9 °C 30.3in /  1027.0hPa WSW 4.3mph /  6.9km/h 5.6mph /  9.0km/h 97% 0in /  0.0mm
23:58 43.3 °F /  6.3 °C 42.4 °F /  5.8 °C 30.3in /  1027.0hPa West 4mph /  6.4km/h 4.9mph /  7.9km/h 97% 0in /  0.0mm
Données Historique de Météo Turbie

Mise a jour : 22/05/2018 04:08:12
Généré par Cumulus 1.9.4 (1099)